createdAt,value
2022-12-04T00:01:46.361Z,100475.59
2022-12-04T00:04:14.435Z,100479.38
2022-12-04T00:06:43.341Z,100476.28
2022-12-04T00:09:11.261Z,100473.72
2022-12-04T00:11:38.990Z,100484.53
2022-12-04T00:14:07.627Z,100472.03
2022-12-04T00:16:36.007Z,100479.13
2022-12-04T00:19:03.795Z,100463.25
2022-12-04T00:21:31.369Z,100467.78
2022-12-04T00:24:00.244Z,100454.84
2022-12-04T00:26:29.134Z,100452.00
2022-12-04T00:28:57.123Z,100453.84
2022-12-04T00:31:27.519Z,100448.75
2022-12-04T00:33:55.091Z,100447.34
2022-12-04T00:36:24.413Z,100450.00
2022-12-04T00:38:52.117Z,100441.97
2022-12-04T00:41:22.707Z,100454.16
2022-12-04T00:43:50.426Z,100443.34
2022-12-04T00:46:18.369Z,100444.75
2022-12-04T00:48:46.002Z,100441.75
2022-12-04T00:51:15.475Z,100438.38
2022-12-04T00:53:42.975Z,100437.72
2022-12-04T00:56:13.228Z,100437.53
2022-12-04T00:58:42.604Z,100431.69
2022-12-04T01:01:12.541Z,100429.16
2022-12-04T01:03:40.578Z,100435.41
2022-12-04T01:06:16.961Z,100430.72
2022-12-04T01:08:44.454Z,100423.00
2022-12-04T01:11:11.918Z,100430.41
2022-12-04T01:13:39.378Z,100421.63
2022-12-04T01:16:09.087Z,100420.31
2022-12-04T01:18:36.168Z,100427.25
2022-12-04T01:21:03.695Z,100422.63
2022-12-04T01:23:31.133Z,100410.09
2022-12-04T01:25:59.250Z,100410.28
2022-12-04T01:28:26.985Z,100404.25
2022-12-04T01:31:01.933Z,100411.91
2022-12-04T01:33:32.521Z,100410.38
2022-12-04T01:36:01.067Z,100389.06
2022-12-04T01:38:29.335Z,100385.69
2022-12-04T01:40:57.402Z,100390.50
2022-12-04T01:43:26.881Z,100390.50
2022-12-04T01:45:56.317Z,100380.97
2022-12-04T01:48:27.807Z,100367.22
2022-12-04T01:51:03.022Z,100367.91
2022-12-04T01:53:31.468Z,100365.19
2022-12-04T01:55:59.310Z,100367.22
2022-12-04T01:58:31.446Z,100364.66
2022-12-04T02:01:08.172Z,100366.91
2022-12-04T02:03:36.922Z,100367.91
2022-12-04T02:06:06.304Z,100371.59
2022-12-04T02:08:35.251Z,100364.97
2022-12-04T02:11:18.886Z,100365.97
2022-12-04T02:13:55.604Z,100355.00
2022-12-04T02:16:31.208Z,100360.25
2022-12-04T02:19:07.982Z,100348.78
2022-12-04T02:21:40.332Z,100342.19
2022-12-04T02:24:40.707Z,100353.41
2022-12-04T02:27:26.821Z,100345.88
2022-12-04T02:30:01.165Z,100341.09
2022-12-04T02:32:39.928Z,100338.56
2022-12-04T02:35:12.641Z,100334.63
2022-12-04T02:37:43.410Z,100334.94
2022-12-04T02:40:21.962Z,100340.88
2022-12-04T02:42:58.373Z,100341.28
2022-12-04T02:45:32.543Z,100333.50
2022-12-04T02:48:03.421Z,100327.47
2022-12-04T02:50:34.264Z,100341.50
2022-12-04T02:53:06.463Z,100326.91
2022-12-04T02:55:38.062Z,100334.31
2022-12-04T02:58:09.633Z,100335.69
2022-12-04T03:00:42.294Z,100340.19
2022-12-04T03:03:14.284Z,100342.41
2022-12-04T03:05:46.939Z,100339.03
2022-12-04T03:08:18.380Z,100330.91
2022-12-04T03:10:50.164Z,100326.06
2022-12-04T03:13:20.750Z,100320.53
2022-12-04T03:15:54.252Z,100327.34
2022-12-04T03:18:26.577Z,100318.94
2022-12-04T03:20:59.001Z,100324.28
2022-12-04T03:23:33.438Z,100319.84
2022-12-04T03:26:04.550Z,100329.50
2022-12-04T03:28:39.766Z,100322.28
2022-12-04T03:31:11.297Z,100320.06
2022-12-04T03:33:42.473Z,100318.94
2022-12-04T03:36:18.812Z,100320.94
2022-12-04T03:38:50.455Z,100318.22
2022-12-04T03:41:26.989Z,100317.34
2022-12-04T03:44:01.884Z,100319.91
2022-12-04T03:46:35.723Z,100312.56
2022-12-04T03:49:09.139Z,100310.56
2022-12-04T03:51:41.361Z,100332.84
2022-12-04T03:54:14.838Z,100332.28
2022-12-04T03:56:47.511Z,100313.41
2022-12-04T03:59:20.531Z,100323.19
2022-12-04T04:01:51.700Z,100325.66
2022-12-04T04:04:22.812Z,100320.81
2022-12-04T04:06:55.392Z,100326.22
2022-12-04T04:09:28.990Z,100314.28
2022-12-04T04:12:03.151Z,100325.59
2022-12-04T04:14:37.848Z,100311.25
2022-12-04T04:17:11.653Z,100311.66
2022-12-04T04:19:42.537Z,100304.19
2022-12-04T04:22:10.822Z,100305.47
2022-12-04T04:24:43.626Z,100298.16
2022-12-04T04:27:11.605Z,100297.31
2022-12-04T04:29:39.808Z,100289.59
2022-12-04T04:32:14.617Z,100281.59
2022-12-04T04:34:49.918Z,100283.06
2022-12-04T04:37:25.902Z,100278.91
2022-12-04T04:40:01.358Z,100273.06
2022-12-04T04:42:33.058Z,100264.19
2022-12-04T04:45:06.291Z,100261.34
2022-12-04T04:47:39.318Z,100267.56
2022-12-04T04:50:11.086Z,100271.13
2022-12-04T04:52:41.645Z,100267.56
2022-12-04T04:55:09.750Z,100270.13
2022-12-04T04:57:37.940Z,100254.41
2022-12-04T05:00:11.640Z,100259.47
2022-12-04T05:02:41.298Z,100261.88
2022-12-04T05:05:09.545Z,100248.00
2022-12-04T05:07:37.236Z,100249.69
2022-12-04T05:10:06.055Z,100237.28
2022-12-04T05:12:33.604Z,100236.97
2022-12-04T05:15:01.375Z,100224.59
2022-12-04T05:17:28.991Z,100224.41
2022-12-04T05:19:58.284Z,100221.72
2022-12-04T05:22:29.528Z,100228.66
2022-12-04T05:24:57.521Z,100228.88
2022-12-04T05:27:25.882Z,100225.81
2022-12-04T05:29:54.309Z,100225.34
2022-12-04T05:32:22.629Z,100228.19
2022-12-04T05:34:50.988Z,100230.59
2022-12-04T05:37:20.339Z,100233.59
2022-12-04T05:39:48.061Z,100231.44
2022-12-04T05:42:16.020Z,100226.34
2022-12-04T05:44:43.505Z,100221.78
2022-12-04T05:47:11.227Z,100222.78
2022-12-04T05:49:38.756Z,100219.09
2022-12-04T05:52:06.702Z,100212.69
2022-12-04T05:54:35.843Z,100208.16
2022-12-04T05:57:03.918Z,100213.00
2022-12-04T05:59:31.601Z,100203.06
2022-12-04T06:01:59.264Z,100208.53
2022-12-04T06:04:26.856Z,100201.44
2022-12-04T06:06:54.985Z,100196.34
2022-12-04T06:09:22.437Z,100198.72
2022-12-04T06:11:51.368Z,100192.09
2022-12-04T06:14:18.833Z,100204.97
2022-12-04T06:16:46.730Z,100209.69
2022-12-04T06:19:16.568Z,100201.44
2022-12-04T06:21:44.468Z,100211.06
2022-12-04T06:24:14.975Z,100204.84
2022-12-04T06:27:03.977Z,100197.91
2022-12-04T06:29:32.615Z,100194.34
2022-12-04T06:32:00.112Z,100195.56
2022-12-04T06:34:27.747Z,100193.88
2022-12-04T06:36:55.946Z,100192.50
2022-12-04T06:39:23.522Z,100188.78
2022-12-04T06:41:51.121Z,100179.38
2022-12-04T06:44:18.727Z,100173.00
2022-12-04T06:46:50.190Z,100170.59
2022-12-04T06:49:17.889Z,100165.03
2022-12-04T06:51:45.458Z,100165.19
2022-12-04T06:54:13.087Z,100160.66
2022-12-04T06:56:40.767Z,100166.13
2022-12-04T06:59:08.297Z,100151.56
2022-12-04T07:01:36.110Z,100152.09
2022-12-04T07:04:05.713Z,100156.56
2022-12-04T07:06:35.331Z,100150.69
2022-12-04T07:09:04.496Z,100143.47
2022-12-04T07:11:32.649Z,100142.78
2022-12-04T07:14:00.151Z,100131.88
2022-12-04T07:16:28.868Z,100121.75
2022-12-04T07:18:56.881Z,100118.78
2022-12-04T07:21:28.012Z,100116.19
2022-12-04T07:23:57.850Z,100115.75
2022-12-04T07:26:25.326Z,100118.78
2022-12-04T07:28:53.701Z,100114.50
2022-12-04T07:31:23.479Z,100120.06
2022-12-04T07:33:51.495Z,100111.28
2022-12-04T07:36:20.784Z,100115.66
2022-12-04T07:38:50.400Z,100112.28
2022-12-04T07:41:18.191Z,100104.88
2022-12-04T07:43:46.419Z,100100.63
2022-12-04T07:46:15.955Z,100099.66
2022-12-04T07:48:43.614Z,100084.28
2022-12-04T07:51:13.123Z,100085.44
2022-12-04T07:53:41.140Z,100078.75
2022-12-04T07:56:12.351Z,100087.00
2022-12-04T07:58:40.249Z,100077.88
2022-12-04T08:01:09.151Z,100083.00
2022-12-04T08:03:38.931Z,100071.81
2022-12-04T08:06:10.053Z,100069.78
2022-12-04T08:08:38.305Z,100063.38
2022-12-04T08:11:07.300Z,100077.34
2022-12-04T08:13:36.239Z,100070.81
2022-12-04T08:16:04.859Z,100073.16
2022-12-04T08:18:32.587Z,100066.25
2022-12-04T08:21:04.606Z,100062.84
2022-12-04T08:23:32.393Z,100061.34
2022-12-04T08:26:00.426Z,100061.69
2022-12-04T08:28:28.357Z,100047.84
2022-12-04T08:31:02.790Z,100048.31
2022-12-04T08:33:30.450Z,100046.16
2022-12-04T08:35:58.302Z,100033.50
2022-12-04T08:38:25.858Z,100038.75
2022-12-04T08:40:53.413Z,100037.06
2022-12-04T08:43:20.994Z,100038.41
2022-12-04T08:45:57.403Z,100042.47
2022-12-04T08:48:25.275Z,100032.34
2022-12-04T08:50:53.068Z,100031.97
2022-12-04T08:53:21.360Z,100026.78
2022-12-04T08:55:48.878Z,100033.50
2022-12-04T08:58:17.050Z,100028.97
2022-12-04T09:00:45.249Z,100020.69
2022-12-04T09:03:16.275Z,100022.56
2022-12-04T09:05:44.164Z,100007.91
2022-12-04T09:08:12.685Z,100014.47
2022-12-04T09:10:40.537Z,100006.03
2022-12-04T09:13:08.739Z,100001.78
2022-12-04T09:15:39.279Z,100000.78
2022-12-04T09:18:06.902Z,100010.41
2022-12-04T09:20:36.495Z,99999.81
2022-12-04T09:23:05.578Z,99995.22
2022-12-04T09:25:35.876Z,99995.63
2022-12-04T09:28:03.878Z,99995.38
2022-12-04T09:30:31.377Z,99990.25
2022-12-04T09:32:58.919Z,99989.84
2022-12-04T09:35:26.469Z,99993.41
2022-12-04T09:37:55.487Z,99976.75
2022-12-04T09:40:32.062Z,99980.13
2022-12-04T09:43:15.644Z,99983.66
2022-12-04T09:45:46.806Z,99973.56
2022-12-04T09:48:18.525Z,99958.19
2022-12-04T09:50:48.818Z,99959.38
2022-12-04T09:53:22.761Z,99968.47
2022-12-04T09:55:56.202Z,99952.13
2022-12-04T09:58:28.613Z,99940.31
2022-12-04T10:00:57.760Z,99944.88
2022-12-04T10:03:28.365Z,99952.13
2022-12-04T10:06:08.268Z,99939.78
2022-12-04T10:08:40.000Z,99932.38
2022-12-04T10:11:14.840Z,99933.75
2022-12-04T10:14:02.449Z,99934.09
2022-12-04T10:16:44.179Z,99939.47
2022-12-04T10:19:19.264Z,99933.75
2022-12-04T10:21:59.050Z,99926.66
2022-12-04T10:24:40.058Z,99923.78
2022-12-04T10:27:15.074Z,99924.50
2022-12-04T10:29:43.950Z,99922.28
2022-12-04T10:32:18.695Z,99922.81
2022-12-04T10:34:48.793Z,99919.91
2022-12-04T10:37:16.935Z,99917.22
2022-12-04T10:39:52.598Z,99913.69
2022-12-04T10:42:28.095Z,99904.06
2022-12-04T10:44:56.106Z,99903.19
2022-12-04T10:47:24.733Z,99903.53
2022-12-04T10:49:58.989Z,99907.59
2022-12-04T10:52:27.240Z,99909.31
2022-12-04T10:54:59.116Z,99909.97
2022-12-04T10:57:36.850Z,99898.16
2022-12-04T11:00:23.145Z,99904.59
2022-12-04T11:02:52.449Z,99896.47
2022-12-04T11:05:26.934Z,99898.16
2022-12-04T11:07:56.132Z,99901.88
2022-12-04T11:10:30.393Z,99895.47
2022-12-04T11:13:00.028Z,99889.22
2022-12-04T11:15:27.684Z,99892.09
2022-12-04T11:17:55.652Z,99892.78
2022-12-04T11:20:26.936Z,99896.47
2022-12-04T11:22:56.954Z,99893.44
2022-12-04T11:25:28.165Z,99890.22
2022-12-04T11:27:59.674Z,99892.78
2022-12-04T11:30:32.948Z,99884.47
2022-12-04T11:33:01.635Z,99889.88
2022-12-04T11:35:30.390Z,99883.66
2022-12-04T11:38:02.379Z,99883.31
2022-12-04T11:40:31.643Z,99891.75
2022-12-04T11:43:05.053Z,99889.56
2022-12-04T11:45:33.761Z,99894.31
2022-12-04T11:48:03.758Z,99878.25
2022-12-04T11:50:40.086Z,99884.34
2022-12-04T11:53:15.688Z,99881.63
2022-12-04T11:56:00.103Z,99878.94
2022-12-04T11:58:50.881Z,99884.19
2022-12-04T12:01:31.588Z,99878.78
2022-12-04T12:04:18.095Z,99878.78
2022-12-04T12:07:01.352Z,99878.59
2022-12-04T12:09:36.905Z,99887.38
2022-12-04T12:12:14.491Z,99883.28
2022-12-04T12:14:51.337Z,99883.31
2022-12-04T12:17:28.161Z,99885.72
2022-12-04T12:20:15.371Z,99885.72
2022-12-04T12:23:13.043Z,99881.28
2022-12-04T12:25:52.369Z,99880.97
2022-12-04T12:28:27.071Z,99875.56
2022-12-04T12:31:10.110Z,99871.72
2022-12-04T12:33:43.262Z,99870.50
2022-12-04T12:36:13.348Z,99874.41
2022-12-04T12:38:47.899Z,99859.03
2022-12-04T12:41:20.055Z,99870.00
2022-12-04T12:44:03.317Z,99863.09
2022-12-04T12:46:34.804Z,99862.75
2022-12-04T12:49:10.161Z,99861.75
2022-12-04T12:51:41.158Z,99857.34
2022-12-04T12:54:17.988Z,99861.75
2022-12-04T12:56:50.972Z,99857.34
2022-12-04T12:59:24.406Z,99852.28
2022-12-04T13:02:01.046Z,99850.25
2022-12-04T13:04:35.579Z,99852.59
2022-12-04T13:07:24.069Z,99846.22
2022-12-04T13:09:58.311Z,99849.78
2022-12-04T13:12:27.139Z,99848.25
2022-12-04T13:14:56.359Z,99846.41
2022-12-04T13:17:32.525Z,99850.94
2022-12-04T13:20:09.938Z,99833.56
2022-12-04T13:22:50.161Z,99839.97
2022-12-04T13:25:43.859Z,99837.59
2022-12-04T13:28:27.589Z,99835.25
2022-12-04T13:31:07.406Z,99834.06
2022-12-04T13:34:03.970Z,99841.66
2022-12-04T13:36:52.537Z,99841.50
2022-12-04T13:39:48.471Z,99831.88
2022-12-04T13:42:24.788Z,99832.41
2022-12-04T13:44:57.871Z,99834.41
2022-12-04T13:47:30.338Z,99842.50
2022-12-04T13:50:21.698Z,99836.94
2022-12-04T13:52:49.421Z,99833.41
2022-12-04T13:55:29.200Z,99835.09
2022-12-04T13:57:59.821Z,99831.38
2022-12-04T14:00:31.714Z,99821.59
2022-12-04T14:03:05.143Z,99825.13
2022-12-04T14:05:43.066Z,99819.72
2022-12-04T14:08:24.167Z,99824.28
2022-12-04T14:11:00.161Z,99826.81
2022-12-04T14:13:31.214Z,99824.81
2022-12-04T14:16:06.127Z,99829.50
2022-12-04T14:18:35.276Z,99817.53
2022-12-04T14:21:06.022Z,99817.69
2022-12-04T14:23:37.809Z,99818.53
2022-12-04T14:26:06.377Z,99821.25
2022-12-04T14:28:42.366Z,99824.81
2022-12-04T14:31:31.361Z,99813.16
2022-12-04T14:34:04.558Z,99817.88
2022-12-04T14:36:40.981Z,99818.91
2022-12-04T14:39:17.938Z,99813.66
2022-12-04T14:41:45.631Z,99819.72
2022-12-04T14:44:25.759Z,99819.72
2022-12-04T14:46:57.673Z,99822.59
2022-12-04T14:49:40.603Z,99818.66
2022-12-04T14:52:15.152Z,99818.19
2022-12-04T14:54:55.027Z,99823.59
2022-12-04T14:57:39.654Z,99817.50
2022-12-04T15:00:16.641Z,99818.88
2022-12-04T15:02:46.073Z,99817.53
2022-12-04T15:05:20.038Z,99809.25
2022-12-04T15:07:49.975Z,99810.09
2022-12-04T15:10:21.174Z,99804.69
2022-12-04T15:12:51.920Z,99794.75
2022-12-04T15:15:21.171Z,99806.41
2022-12-04T15:17:59.686Z,99801.84
2022-12-04T15:20:37.427Z,99803.69
2022-12-04T15:23:06.818Z,99803.00
2022-12-04T15:25:40.336Z,99799.63
2022-12-04T15:28:13.149Z,99799.63
2022-12-04T15:30:42.208Z,99795.78
2022-12-04T15:33:19.384Z,99801.84
2022-12-04T15:35:54.402Z,99802.34
2022-12-04T15:38:22.109Z,99800.66
2022-12-04T15:40:52.403Z,99807.06
2022-12-04T15:43:27.831Z,99805.72
2022-12-04T15:45:55.997Z,99813.16
2022-12-04T15:48:28.003Z,99803.00
2022-12-04T15:50:59.283Z,99795.59
2022-12-04T15:53:29.853Z,99802.84
2022-12-04T15:56:00.144Z,99805.72
2022-12-04T15:58:29.829Z,99804.03
2022-12-04T16:00:58.413Z,99802.84
2022-12-04T16:03:28.922Z,99803.00
2022-12-04T16:06:13.777Z,99803.69
2022-12-04T16:08:44.082Z,99802.34
2022-12-04T16:11:28.556Z,99810.09
2022-12-04T16:14:05.742Z,99810.81
2022-12-04T16:16:33.911Z,99807.25
2022-12-04T16:19:05.786Z,99807.25
2022-12-04T16:21:35.792Z,99812.63
2022-12-04T16:24:04.776Z,99812.81
2022-12-04T16:26:33.617Z,99803.69
2022-12-04T16:29:01.977Z,99807.09
2022-12-04T16:31:29.691Z,99807.91
2022-12-04T16:33:57.396Z,99805.41
2022-12-04T16:36:24.906Z,99809.78
2022-12-04T16:38:56.386Z,99815.84
2022-12-04T16:41:23.877Z,99815.00
2022-12-04T16:43:54.523Z,99812.47
2022-12-04T16:46:24.729Z,99816.69
2022-12-04T16:48:52.300Z,99813.00
2022-12-04T16:51:22.830Z,99817.53
2022-12-04T16:53:51.149Z,99812.28
2022-12-04T16:56:20.445Z,99815.19
2022-12-04T16:58:48.486Z,99810.44
2022-12-04T17:01:21.773Z,99812.13
2022-12-04T17:03:49.833Z,99811.13
2022-12-04T17:06:18.077Z,99808.41
2022-12-04T17:08:45.721Z,99813.00
2022-12-04T17:11:15.350Z,99818.41
2022-12-04T17:13:44.074Z,99817.53
2022-12-04T17:16:14.867Z,99817.53
2022-12-04T17:18:42.763Z,99818.19
2022-12-04T17:21:12.703Z,99810.59
2022-12-04T17:23:41.024Z,99831.03
2022-12-04T17:26:10.288Z,99837.09
2022-12-04T17:28:38.276Z,99849.59
2022-12-04T17:31:13.944Z,99859.72
2022-12-04T17:33:41.777Z,99860.41
2022-12-04T17:36:10.199Z,99853.31
2022-12-04T17:38:38.501Z,99864.47
2022-12-04T17:41:06.158Z,99861.59
2022-12-04T17:43:34.383Z,99868.84
2022-12-04T17:46:02.370Z,99859.88
2022-12-04T17:48:31.749Z,99870.88
2022-12-04T17:51:07.518Z,99869.50
2022-12-04T17:53:35.554Z,99871.56
2022-12-04T17:56:05.297Z,99868.00
2022-12-04T17:58:33.941Z,99871.56
2022-12-04T18:01:02.861Z,99870.53
2022-12-04T18:03:32.045Z,99871.56
2022-12-04T18:05:59.762Z,99875.94
2022-12-04T18:08:27.618Z,99886.75
2022-12-04T18:10:57.311Z,99881.19
2022-12-04T18:13:24.950Z,99884.03
2022-12-04T18:15:52.853Z,99879.16
2022-12-04T18:18:20.365Z,99888.28
2022-12-04T18:21:00.398Z,99888.13
2022-12-04T18:23:28.628Z,99888.28
2022-12-04T18:25:56.389Z,99889.09
2022-12-04T18:28:24.110Z,99886.75
2022-12-04T18:30:52.746Z,99885.56
2022-12-04T18:33:20.816Z,99890.09
2022-12-04T18:35:55.557Z,99893.50
2022-12-04T18:38:23.105Z,99891.78
2022-12-04T18:40:51.117Z,99896.22
2022-12-04T18:43:18.977Z,99904.31
2022-12-04T18:45:46.859Z,99907.00
2022-12-04T18:48:15.409Z,99907.69
2022-12-04T18:50:42.903Z,99914.09
2022-12-04T18:53:11.905Z,99916.09
2022-12-04T18:55:39.926Z,99914.09
2022-12-04T18:58:07.385Z,99918.50
2022-12-04T19:00:34.989Z,99910.03
2022-12-04T19:03:02.453Z,99919.50
2022-12-04T19:05:29.968Z,99921.34
2022-12-04T19:07:58.141Z,99924.06
2022-12-04T19:10:28.085Z,99923.22
2022-12-04T19:12:55.850Z,99921.50
2022-12-04T19:15:23.397Z,99920.53
2022-12-04T19:17:50.802Z,99926.75
2022-12-04T19:20:18.999Z,99926.75
2022-12-04T19:22:46.514Z,99930.31
2022-12-04T19:25:14.106Z,99926.75
2022-12-04T19:27:43.636Z,99929.28
2022-12-04T19:30:11.862Z,99923.22
2022-12-04T19:32:39.341Z,99925.06
2022-12-04T19:35:07.421Z,99932.00
2022-12-04T19:37:41.208Z,99942.81
2022-12-04T19:40:10.394Z,99939.44
2022-12-04T19:42:38.032Z,99937.72
2022-12-04T19:45:07.835Z,99924.06
2022-12-04T19:47:35.357Z,99929.28
2022-12-04T19:50:03.330Z,99934.69
2022-12-04T19:52:30.988Z,99934.03
2022-12-04T19:54:58.432Z,99939.44
2022-12-04T19:57:26.022Z,99945.66
2022-12-04T19:59:53.450Z,99951.72
2022-12-04T20:02:22.535Z,99950.91
2022-12-04T20:04:50.079Z,99949.22
2022-12-04T20:07:17.564Z,99953.59
2022-12-04T20:09:50.326Z,99953.59
2022-12-04T20:12:19.738Z,99949.38
2022-12-04T20:14:47.195Z,99953.09
2022-12-04T20:17:15.015Z,99955.63
2022-12-04T20:19:44.008Z,99950.22
2022-12-04T20:22:12.075Z,99948.50
2022-12-04T20:24:39.586Z,99952.94
2022-12-04T20:27:07.032Z,99957.63
2022-12-04T20:29:34.498Z,99953.09
2022-12-04T20:32:02.072Z,99954.78
2022-12-04T20:34:29.633Z,99963.03
2022-12-04T20:36:58.629Z,99958.50
2022-12-04T20:39:26.638Z,99960.19
2022-12-04T20:41:54.759Z,99955.63
2022-12-04T20:44:22.754Z,99958.50
2022-12-04T20:46:50.209Z,99950.38
2022-12-04T20:49:21.928Z,99951.41
2022-12-04T20:51:50.992Z,99961.34
2022-12-04T20:54:21.954Z,99961.34
2022-12-04T20:56:50.321Z,99964.91
2022-12-04T20:59:19.223Z,99964.91
2022-12-04T21:01:47.906Z,99960.50
2022-12-04T21:04:16.399Z,99968.44
2022-12-04T21:06:44.694Z,99972.00
2022-12-04T21:09:14.212Z,99970.47
2022-12-04T21:11:45.580Z,99974.03
2022-12-04T21:14:15.088Z,99970.47
2022-12-04T21:16:42.707Z,99976.53
2022-12-04T21:19:11.632Z,99970.47
2022-12-04T21:21:39.321Z,99966.94
2022-12-04T21:24:08.828Z,99973.84
2022-12-04T21:26:36.482Z,99985.66
2022-12-04T21:29:06.472Z,99984.63
2022-12-04T21:31:35.113Z,99981.94
2022-12-04T21:34:05.237Z,99988.34
2022-12-04T21:36:32.461Z,99990.03
2022-12-04T21:39:00.136Z,99982.94
2022-12-04T21:41:27.872Z,99991.72
2022-12-04T21:43:55.354Z,99989.22
2022-12-04T21:46:24.382Z,99991.72
2022-12-04T21:48:51.941Z,99990.03
2022-12-04T21:51:40.297Z,99989.22
2022-12-04T21:54:07.008Z,99984.63
2022-12-04T21:56:34.663Z,99986.31
2022-12-04T21:59:02.229Z,99986.50
2022-12-04T22:01:31.326Z,99988.19
2022-12-04T22:03:58.834Z,99986.31
2022-12-04T22:06:27.034Z,99996.28
2022-12-04T22:08:55.417Z,99993.59
2022-12-04T22:11:23.034Z,99994.44
2022-12-04T22:13:51.127Z,99999.00
2022-12-04T22:16:19.390Z,99998.31
2022-12-04T22:18:48.393Z,99999.84
2022-12-04T22:21:16.591Z,100001.69
2022-12-04T22:23:44.068Z,100009.81
2022-12-04T22:26:13.019Z,100006.09
2022-12-04T22:28:40.922Z,99997.13
2022-12-04T22:31:10.234Z,100001.84
2022-12-04T22:33:38.124Z,100001.84
2022-12-04T22:36:08.930Z,100001.03
2022-12-04T22:38:47.265Z,100005.41
2022-12-04T22:41:27.706Z,100001.84
2022-12-04T22:43:55.641Z,100001.84
2022-12-04T22:46:23.195Z,100009.97
2022-12-04T22:48:50.720Z,100005.41
2022-12-04T22:51:21.266Z,100005.56
2022-12-04T22:53:50.435Z,100008.28
2022-12-04T22:56:19.485Z,100018.06
2022-12-04T22:58:46.961Z,100016.22
2022-12-04T23:01:16.663Z,100015.34
2022-12-04T23:03:44.277Z,100007.44
2022-12-04T23:06:12.031Z,100013.66
2022-12-04T23:08:42.232Z,100011.66
2022-12-04T23:11:11.874Z,100010.28
2022-12-04T23:13:39.298Z,100011.66
2022-12-04T23:16:09.746Z,100011.84
2022-12-04T23:18:37.855Z,100017.03
2022-12-04T23:21:08.120Z,100014.34
2022-12-04T23:23:36.939Z,100012.50
2022-12-04T23:26:08.408Z,100013.50
2022-12-04T23:28:36.319Z,100009.13
2022-12-04T23:31:04.931Z,100008.94
2022-12-04T23:33:32.968Z,100013.50
2022-12-04T23:36:02.204Z,100004.41
2022-12-04T23:38:30.095Z,100016.03
2022-12-04T23:41:01.706Z,100005.41
2022-12-04T23:43:31.075Z,100013.34
2022-12-04T23:45:58.989Z,100019.75
2022-12-04T23:48:26.895Z,100025.00
2022-12-04T23:50:54.933Z,100027.03
2022-12-04T23:53:23.460Z,100022.63
2022-12-04T23:55:57.738Z,100021.63
2022-12-04T23:58:26.055Z,100027.03
